Startpagina
METAR-TAF:

METAR-TAF

Vliegvelden :

Winnipeg, Manitoba, Canada

breedte: 49-54N, lengte: 097-14W, hoogte: 239 m

Actueel weer

Dit bericht is 50 minuten geleden gemaakt, om 11:00 UTC
Wind 8 kt uit het zuidwesten
Temperatuur -9°C
Vochtigheid 92%
Druk 1013 hPa
Zicht: 24.1 km
Onbewolkt

METAR: CYWG 171100Z 23008KT 15SM SKC M09/M10 A2992 RMK SLP152

Tijdstip: 05:50 (11:50 UTC)

Verwachting

Dit bericht is 12 minuten geleden gemaakt, om 11:38 UTC
Verwachting geldig van 17 om 12 UTC tot 18 om 12 UTC
Wind 8 kt uit het zuidwesten
Zicht: 10 km
Onbewolkt
Van 17 om 1700 UTC
Wind 12 kt uit het zuidzuidwesten
Zicht: 10 km
Weinig wolken op 8000 ft
Van 18 om 0300 UTC
Wind 15 kt uit het zuidzuidwesten
Zicht: 10 km
Weinig wolken op 8000 ft
Gebroken wolken op 16000 ft
Gebroken wolken op 22000 ft

TAF: CYWG 171138Z 1712/1812 23008KT P6SM SKC FM171700 21012KT P6SM FEW080 FM180300 20015KT P6SM FEW080 BKN160 BKN220 RMK NXT FCST BY 171800Z

Waarnemingen en weersverwachtingen van meer dan 4000 vliegvelden (METAR en TAF).

De beschikbare stations zijn de gele en rode punten op de kaart.

Ga met uw muis naar het station om de naam te zien.

Klik dan om waarnemingen en weersverwachtingen te zien.

kaart wijzigen: klik op de groene knoppen met een zwart kruis om in te zoomen, op de groene knop met een streepje om uit te zoomen of op de groene pijlen voor aangrenzende kaarten.


METAR-TAF: